METAR Data
IDs: Format: Raw Decoded Include TAF

Data at: 1029 UTC 18 Jan 2022

KMWA 181015Z AUTO 16003KT 10SM CLR M03/M04 A3009 RMK AO2 T10261042